createdAt,value
2019-04-26T00:00:07.529Z,44.95
2019-04-26T00:02:41.611Z,45.03
2019-04-26T00:05:10.165Z,44.91
2019-04-26T00:07:37.215Z,45.55
2019-04-26T00:10:10.368Z,45.53
2019-04-26T00:12:47.997Z,45.11
2019-04-26T00:15:33.800Z,45.87
2019-04-26T00:18:02.672Z,45.78
2019-04-26T00:20:32.983Z,45.16
2019-04-26T00:23:01.349Z,44.25
2019-04-26T00:25:28.124Z,44.32
2019-04-26T00:27:54.920Z,43.58
2019-04-26T00:30:24.447Z,43.10
2019-04-26T00:32:53.915Z,42.94
2019-04-26T00:35:23.007Z,43.44
2019-04-26T00:37:51.834Z,45.15
2019-04-26T00:40:18.640Z,45.87
2019-04-26T00:42:45.450Z,45.83
2019-04-26T00:45:13.994Z,45.51
2019-04-26T00:47:43.863Z,46.15
2019-04-26T00:50:13.905Z,46.83
2019-04-26T00:52:42.582Z,47.20
2019-04-26T00:55:11.832Z,47.78
2019-04-26T00:57:38.535Z,48.38
2019-04-26T01:00:05.614Z,49.30
2019-04-26T01:02:38.465Z,50.11
2019-04-26T01:05:05.090Z,50.97
2019-04-26T01:07:34.509Z,51.17
2019-04-26T01:10:04.414Z,51.16
2019-04-26T01:12:33.922Z,51.52
2019-04-26T01:15:02.637Z,51.74
2019-04-26T01:17:32.531Z,52.23
2019-04-26T01:20:01.994Z,53.25
2019-04-26T01:22:33.263Z,54.78
2019-04-26T01:25:03.827Z,55.92
2019-04-26T01:27:32.266Z,56.43
2019-04-26T01:30:05.670Z,56.97
2019-04-26T01:32:32.985Z,57.33
2019-04-26T01:35:02.212Z,57.67
2019-04-26T01:37:32.281Z,57.68
2019-04-26T01:40:05.710Z,57.72
2019-04-26T01:43:01.352Z,57.80
2019-04-26T01:45:36.883Z,58.12
2019-04-26T01:48:29.016Z,58.63
2019-04-26T01:50:55.822Z,59.21
2019-04-26T01:53:22.685Z,60.01
2019-04-26T01:55:52.068Z,60.33
2019-04-26T01:58:25.243Z,60.46
2019-04-26T02:01:11.013Z,60.46
2019-04-26T02:03:37.935Z,60.25
2019-04-26T02:06:04.568Z,60.62
2019-04-26T02:08:34.052Z,60.39
2019-04-26T02:11:03.883Z,60.47
2019-04-26T02:13:33.363Z,60.38
2019-04-26T02:15:59.954Z,60.09
2019-04-26T02:18:33.597Z,60.04
2019-04-26T02:21:27.943Z,59.94
2019-04-26T02:24:01.972Z,59.67
2019-04-26T02:26:42.058Z,59.77
2019-04-26T02:29:14.920Z,60.04
2019-04-26T02:31:44.132Z,60.27
2019-04-26T02:34:14.786Z,60.27
2019-04-26T02:36:57.058Z,60.29
2019-04-26T02:39:17.242Z,60.68
2019-04-26T02:41:47.219Z,61.09
2019-04-26T02:44:16.273Z,61.23
2019-04-26T02:46:54.434Z,61.48
2019-04-26T02:49:38.521Z,61.89
2019-04-26T02:52:44.023Z,61.99
2019-04-26T02:55:38.823Z,62.27
2019-04-26T02:58:02.978Z,62.64
2019-04-26T03:00:33.481Z,62.53
2019-04-26T03:03:04.510Z,62.70
2019-04-26T03:05:39.714Z,63.05
2019-04-26T03:08:14.260Z,63.25
2019-04-26T03:10:48.390Z,63.39
2019-04-26T03:13:38.235Z,63.72
2019-04-26T03:16:32.675Z,63.89
2019-04-26T03:19:11.378Z,64.21
2019-04-26T03:22:03.504Z,64.48
2019-04-26T03:24:53.282Z,64.61
2019-04-26T03:27:40.987Z,64.86
2019-04-26T03:30:22.103Z,65.21
2019-04-26T03:33:17.000Z,65.35
2019-04-26T03:36:22.912Z,65.47
2019-04-26T03:39:11.533Z,65.54
2019-04-26T03:42:06.596Z,65.92
2019-04-26T03:44:40.070Z,66.10
2019-04-26T03:47:11.829Z,66.52
2019-04-26T03:50:07.907Z,66.47
2019-04-26T03:53:23.431Z,66.95
2019-04-26T03:56:14.285Z,67.24
2019-04-26T03:59:04.882Z,67.56
2019-04-26T04:01:46.228Z,67.94
2019-04-26T04:04:39.623Z,68.37
2019-04-26T04:07:10.430Z,68.69
2019-04-26T04:09:41.451Z,69.02
2019-04-26T04:12:17.471Z,69.15
2019-04-26T04:14:54.019Z,69.56
2019-04-26T04:17:39.028Z,69.71
2019-04-26T04:20:32.644Z,69.86
2019-04-26T04:23:16.502Z,70.02
2019-04-26T04:25:47.787Z,69.92
2019-04-26T04:28:51.729Z,70.24
2019-04-26T04:31:27.833Z,70.17
2019-04-26T04:34:13.129Z,70.37
2019-04-26T04:36:50.583Z,70.32
2019-04-26T04:39:32.066Z,70.18
2019-04-26T04:42:30.942Z,70.42
2019-04-26T04:45:30.872Z,70.12
2019-04-26T04:48:22.069Z,69.95
2019-04-26T04:51:00.144Z,70.01
2019-04-26T04:53:46.527Z,69.76
2019-04-26T04:56:58.960Z,69.71
2019-04-26T04:59:31.743Z,69.30
2019-04-26T05:02:33.069Z,68.97
2019-04-26T05:05:19.162Z,68.36
2019-04-26T05:08:06.551Z,67.85
2019-04-26T05:10:44.333Z,67.33
2019-04-26T05:13:27.065Z,66.76
2019-04-26T05:16:28.929Z,66.56
2019-04-26T05:19:52.737Z,66.15
2019-04-26T05:23:06.688Z,65.21
2019-04-26T05:26:30.670Z,64.61
2019-04-26T05:29:36.044Z,64.04
2019-04-26T05:32:35.775Z,63.54
2019-04-26T05:35:39.033Z,63.11
2019-04-26T05:38:21.317Z,62.31
2019-04-26T05:41:21.348Z,61.25
2019-04-26T05:44:17.195Z,60.58
2019-04-26T05:47:22.443Z,59.77
2019-04-26T05:51:11.241Z,60.17
2019-04-26T05:54:31.630Z,60.21
2019-04-26T05:57:20.218Z,59.97
2019-04-26T06:00:21.260Z,60.97
2019-04-26T06:03:44.717Z,61.56
2019-04-26T06:07:02.295Z,61.98
2019-04-26T06:10:13.893Z,62.42
2019-04-26T06:13:02.989Z,62.22
2019-04-26T06:15:56.155Z,61.24
2019-04-26T06:18:49.045Z,60.62
2019-04-26T06:21:42.565Z,59.74
2019-04-26T06:24:52.632Z,58.71
2019-04-26T06:27:45.934Z,58.73
2019-04-26T06:30:18.181Z,58.40
2019-04-26T06:33:34.608Z,56.59
2019-04-26T06:36:06.640Z,55.95
2019-04-26T06:39:25.408Z,54.26
2019-04-26T06:42:47.343Z,53.51
2019-04-26T06:46:08.179Z,52.84
2019-04-26T06:48:51.136Z,54.01
2019-04-26T06:51:24.613Z,52.55
2019-04-26T06:54:15.549Z,52.48
2019-04-26T06:57:37.165Z,51.67
2019-04-26T07:00:20.562Z,51.71
2019-04-26T07:03:12.096Z,51.86
2019-04-26T07:05:42.443Z,51.57
2019-04-26T07:08:56.601Z,51.35
2019-04-26T07:12:28.735Z,51.08
2019-04-26T07:15:52.052Z,50.23
2019-04-26T07:18:26.950Z,49.90
2019-04-26T07:21:11.533Z,49.47
2019-04-26T07:24:14.933Z,49.16
2019-04-26T07:27:19.616Z,49.28
2019-04-26T07:30:21.804Z,48.22
2019-04-26T07:33:18.446Z,47.50
2019-04-26T07:35:59.046Z,48.08
2019-04-26T07:39:13.795Z,47.48
2019-04-26T07:42:11.563Z,47.20
2019-04-26T07:45:31.802Z,48.41
2019-04-26T07:48:32.345Z,47.58
2019-04-26T07:51:48.473Z,47.65
2019-04-26T07:55:06.783Z,48.11
2019-04-26T07:58:06.929Z,47.20
2019-04-26T08:00:45.176Z,47.12
2019-04-26T08:03:18.938Z,47.46
2019-04-26T08:06:08.538Z,47.70
2019-04-26T08:08:43.695Z,47.57
2019-04-26T08:11:17.929Z,48.03
2019-04-26T08:14:06.263Z,48.13
2019-04-26T08:16:43.352Z,47.33
2019-04-26T08:19:19.915Z,47.01
2019-04-26T08:21:49.086Z,46.86
2019-04-26T08:24:21.460Z,46.20
2019-04-26T08:27:08.853Z,45.26
2019-04-26T08:29:44.171Z,45.69
2019-04-26T08:32:21.266Z,45.69
2019-04-26T08:35:02.296Z,46.24
2019-04-26T08:37:41.240Z,46.24
2019-04-26T08:40:08.772Z,46.69
2019-04-26T08:42:43.947Z,47.66
2019-04-26T08:46:17.135Z,48.23
2019-04-26T08:48:17.229Z,48.10
2019-04-26T08:50:47.056Z,47.12
2019-04-26T08:53:14.898Z,44.83
2019-04-26T08:55:46.454Z,42.36
2019-04-26T08:58:19.918Z,42.36
2019-04-26T09:01:16.061Z,43.05
2019-04-26T09:03:58.149Z,44.39
2019-04-26T09:06:46.581Z,44.39
2019-04-26T09:09:19.768Z,44.62
2019-04-26T09:11:59.514Z,44.42
2019-04-26T09:14:21.046Z,44.91
2019-04-26T09:16:50.433Z,45.72
2019-04-26T09:19:16.903Z,46.34
2019-04-26T09:21:53.818Z,46.15
2019-04-26T09:24:45.445Z,46.86
2019-04-26T09:27:21.105Z,46.25
2019-04-26T09:30:07.688Z,46.37
2019-04-26T09:33:07.722Z,46.30
2019-04-26T09:35:34.441Z,47.35
2019-04-26T09:38:01.158Z,47.35
2019-04-26T09:40:28.022Z,47.33
2019-04-26T09:43:06.069Z,47.69
2019-04-26T09:45:51.182Z,47.64
2019-04-26T09:48:24.929Z,47.97
2019-04-26T09:50:54.451Z,48.41
2019-04-26T09:53:25.147Z,48.19
2019-04-26T09:55:53.626Z,47.83
2019-04-26T09:58:20.388Z,48.10
2019-04-26T10:00:50.056Z,49.04
2019-04-26T10:03:16.890Z,49.27
2019-04-26T10:05:44.127Z,48.80
2019-04-26T10:08:17.513Z,48.74
2019-04-26T10:10:45.553Z,49.06
2019-04-26T10:13:46.006Z,48.56
2019-04-26T10:16:29.781Z,48.75
2019-04-26T10:19:03.276Z,48.51
2019-04-26T10:21:34.058Z,49.03
2019-04-26T10:24:00.871Z,47.98
2019-04-26T10:26:29.799Z,47.22
2019-04-26T10:29:01.150Z,46.94
2019-04-26T10:31:51.678Z,47.88
2019-04-26T10:34:16.305Z,48.17
2019-04-26T10:36:56.850Z,48.90
2019-04-26T10:39:24.239Z,49.84
2019-04-26T10:41:56.025Z,49.20
2019-04-26T10:44:24.859Z,50.69
2019-04-26T10:46:55.753Z,51.54
2019-04-26T10:49:45.083Z,51.00
2019-04-26T10:52:27.030Z,51.08
2019-04-26T10:55:24.079Z,51.42
2019-04-26T10:57:55.630Z,51.39
2019-04-26T11:00:43.921Z,51.14
2019-04-26T11:03:11.515Z,51.59
2019-04-26T11:05:41.459Z,51.79
2019-04-26T11:08:12.622Z,52.59
2019-04-26T11:10:48.754Z,52.73
2019-04-26T11:13:21.346Z,52.54
2019-04-26T11:15:49.629Z,52.48
2019-04-26T11:18:19.848Z,51.82
2019-04-26T11:20:49.921Z,50.11
2019-04-26T11:23:23.096Z,49.96
2019-04-26T11:26:01.752Z,49.64
2019-04-26T11:28:34.001Z,49.97
2019-04-26T11:31:02.253Z,50.49
2019-04-26T11:33:44.260Z,50.41
2019-04-26T11:36:06.884Z,51.41
2019-04-26T11:38:45.768Z,49.72
2019-04-26T11:41:13.262Z,49.36
2019-04-26T11:43:40.856Z,50.42
2019-04-26T11:46:07.764Z,50.70
2019-04-26T11:48:36.288Z,50.97
2019-04-26T11:51:03.525Z,50.65
2019-04-26T11:53:33.389Z,51.20
2019-04-26T11:56:04.478Z,51.57
2019-04-26T11:58:31.663Z,51.92
2019-04-26T12:01:03.746Z,51.68
2019-04-26T12:03:31.327Z,52.16
2019-04-26T12:06:27.883Z,52.47
2019-04-26T12:09:15.320Z,52.66
2019-04-26T12:11:50.994Z,53.77
2019-04-26T12:14:20.481Z,54.52
2019-04-26T12:16:49.315Z,54.95
2019-04-26T12:19:18.236Z,54.23
2019-04-26T12:21:47.232Z,54.59
2019-04-26T12:24:16.689Z,55.14
2019-04-26T12:26:46.311Z,55.54
2019-04-26T12:29:14.695Z,55.81
2019-04-26T12:31:42.653Z,56.25
2019-04-26T12:34:09.653Z,55.75
2019-04-26T12:36:36.735Z,55.15
2019-04-26T12:39:07.284Z,54.88
2019-04-26T12:41:40.260Z,56.30
2019-04-26T12:44:03.291Z,57.41
2019-04-26T12:46:36.717Z,57.38
2019-04-26T12:49:03.539Z,57.35
2019-04-26T12:51:30.367Z,58.17
2019-04-26T12:53:57.565Z,58.41
2019-04-26T12:56:30.803Z,59.13
2019-04-26T12:58:55.147Z,58.19
2019-04-26T13:01:30.738Z,58.40
2019-04-26T13:04:04.153Z,59.25
2019-04-26T13:06:33.454Z,59.42
2019-04-26T13:09:00.097Z,59.33
2019-04-26T13:11:52.862Z,59.07
2019-04-26T13:14:25.620Z,58.77
2019-04-26T13:17:01.188Z,59.91
2019-04-26T13:19:34.319Z,60.50
2019-04-26T13:22:01.413Z,61.14
2019-04-26T13:24:28.450Z,61.02
2019-04-26T13:26:55.011Z,60.68
2019-04-26T13:29:21.760Z,61.69
2019-04-26T13:31:48.380Z,61.93
2019-04-26T13:34:16.376Z,61.52
2019-04-26T13:36:44.929Z,61.35
2019-04-26T13:39:13.450Z,62.16
2019-04-26T13:42:03.064Z,62.33
2019-04-26T13:44:43.841Z,61.91
2019-04-26T13:47:42.173Z,61.68
2019-04-26T13:50:15.141Z,60.80
2019-04-26T13:52:42.284Z,61.42
2019-04-26T13:55:09.066Z,61.40
2019-04-26T13:57:36.168Z,61.16
2019-04-26T14:00:06.969Z,60.63
2019-04-26T14:02:32.749Z,60.40
2019-04-26T14:04:59.631Z,60.33
2019-04-26T14:07:26.158Z,60.20
2019-04-26T14:09:52.740Z,60.86
2019-04-26T14:12:19.649Z,61.05
2019-04-26T14:14:46.541Z,61.04
2019-04-26T14:17:13.399Z,61.40
2019-04-26T14:19:40.155Z,61.25
2019-04-26T14:22:07.377Z,61.56
2019-04-26T14:24:56.909Z,61.84
2019-04-26T14:27:28.261Z,62.01
2019-04-26T14:29:55.056Z,62.52
2019-04-26T14:32:23.018Z,62.60
2019-04-26T14:34:50.308Z,62.89
2019-04-26T14:37:18.403Z,62.92
2019-04-26T14:39:50.466Z,63.51
2019-04-26T14:42:14.758Z,63.45
2019-04-26T14:44:49.205Z,63.26
2019-04-26T14:47:14.930Z,63.17
2019-04-26T14:49:42.940Z,62.80
2019-04-26T14:52:09.353Z,62.76
2019-04-26T14:54:37.366Z,62.82
2019-04-26T14:57:09.352Z,62.83
2019-04-26T14:59:56.716Z,62.57
2019-04-26T15:02:47.235Z,62.53
2019-04-26T15:05:17.686Z,63.13
2019-04-26T15:07:51.120Z,63.49
2019-04-26T15:10:15.700Z,62.85
2019-04-26T15:12:48.237Z,63.90
2019-04-26T15:15:15.499Z,64.09
2019-04-26T15:17:42.366Z,64.58
2019-04-26T15:20:09.368Z,65.76
2019-04-26T15:22:36.166Z,67.29
2019-04-26T15:25:07.789Z,68.16
2019-04-26T15:27:36.297Z,68.39
2019-04-26T15:30:04.282Z,68.82
2019-04-26T15:32:32.867Z,69.18
2019-04-26T15:35:00.048Z,69.70
2019-04-26T15:37:28.403Z,70.35
2019-04-26T15:40:09.513Z,70.68
2019-04-26T15:42:45.226Z,70.60
2019-04-26T15:45:21.949Z,70.67
2019-04-26T15:48:12.131Z,70.80
2019-04-26T15:50:47.804Z,70.62
2019-04-26T15:53:12.887Z,71.08
2019-04-26T15:55:40.301Z,71.01
2019-04-26T15:58:08.539Z,71.50
2019-04-26T16:00:36.287Z,72.16
2019-04-26T16:03:07.409Z,71.89
2019-04-26T16:05:33.412Z,72.32
2019-04-26T16:08:01.863Z,72.92
2019-04-26T16:10:37.082Z,73.83
2019-04-26T16:13:00.081Z,74.88
2019-04-26T16:15:32.232Z,76.69
2019-04-26T16:18:03.958Z,78.19
2019-04-26T16:20:33.129Z,78.80
2019-04-26T16:23:00.429Z,80.67
2019-04-26T16:25:39.701Z,81.93
2019-04-26T16:28:24.790Z,83.46
2019-04-26T16:31:13.877Z,84.91
2019-04-26T16:33:46.629Z,85.80
2019-04-26T16:36:13.499Z,86.99
2019-04-26T16:38:41.055Z,86.24
2019-04-26T16:41:08.038Z,85.99
2019-04-26T16:44:02.800Z,86.42
2019-04-26T16:46:29.862Z,86.21
2019-04-26T16:49:02.392Z,87.17
2019-04-26T16:51:34.070Z,87.30
2019-04-26T16:54:10.071Z,86.94
2019-04-26T16:56:29.722Z,87.56
2019-04-26T16:58:57.098Z,88.28
2019-04-26T17:01:23.944Z,88.57
2019-04-26T17:03:53.526Z,89.20
2019-04-26T17:06:23.396Z,89.54
2019-04-26T17:08:58.600Z,89.70
2019-04-26T17:11:18.746Z,89.86
2019-04-26T17:13:50.577Z,89.77
2019-04-26T17:16:14.587Z,91.07
2019-04-26T17:18:42.677Z,90.55
2019-04-26T17:21:10.347Z,90.69
2019-04-26T17:24:00.796Z,91.02
2019-04-26T17:26:36.750Z,91.61
2019-04-26T17:29:03.937Z,91.85
2019-04-26T17:31:30.651Z,91.88
2019-04-26T17:34:00.097Z,92.37
2019-04-26T17:36:26.895Z,92.63
2019-04-26T17:38:55.079Z,93.09
2019-04-26T17:41:22.261Z,93.93
2019-04-26T17:44:05.784Z,93.34
2019-04-26T17:46:21.742Z,93.75
2019-04-26T17:48:49.454Z,93.51
2019-04-26T17:51:22.706Z,93.64
2019-04-26T17:53:48.920Z,93.49
2019-04-26T17:56:18.632Z,92.70
2019-04-26T17:58:52.401Z,92.93
2019-04-26T18:01:39.086Z,92.86
2019-04-26T18:03:50.747Z,93.19
2019-04-26T18:06:14.022Z,92.57
2019-04-26T18:08:51.741Z,92.46
2019-04-26T18:11:18.982Z,92.38
2019-04-26T18:13:38.828Z,91.33
2019-04-26T18:16:05.703Z,91.68
2019-04-26T18:19:08.067Z,90.40
2019-04-26T18:21:56.012Z,90.75
2019-04-26T18:24:20.255Z,90.92
2019-04-26T18:26:52.299Z,89.93
2019-04-26T18:29:17.706Z,90.42
2019-04-26T18:31:44.547Z,91.37
2019-04-26T18:34:12.817Z,91.28
2019-04-26T18:36:39.577Z,90.20
2019-04-26T18:39:07.158Z,90.37
2019-04-26T18:41:34.069Z,91.50
2019-04-26T18:44:14.004Z,91.36
2019-04-26T18:46:59.182Z,91.63
2019-04-26T18:49:27.136Z,89.78
2019-04-26T18:51:54.683Z,90.10
2019-04-26T18:54:37.030Z,90.89
2019-04-26T18:57:04.237Z,89.73
2019-04-26T18:59:34.304Z,90.57
2019-04-26T19:02:00.891Z,90.77
2019-04-26T19:04:30.674Z,90.73
2019-04-26T19:06:57.995Z,90.85
2019-04-26T19:09:31.078Z,91.02
2019-04-26T19:12:04.456Z,90.94
2019-04-26T19:14:49.767Z,91.58
2019-04-26T19:17:33.789Z,91.53
2019-04-26T19:20:26.517Z,91.21
2019-04-26T19:23:02.985Z,91.11
2019-04-26T19:25:38.676Z,90.83
2019-04-26T19:28:08.296Z,90.72
2019-04-26T19:30:35.616Z,90.87
2019-04-26T19:33:02.320Z,90.93
2019-04-26T19:35:29.041Z,90.44
2019-04-26T19:38:16.547Z,90.47
2019-04-26T19:40:47.604Z,90.15
2019-04-26T19:43:12.914Z,90.02
2019-04-26T19:45:49.879Z,90.34
2019-04-26T19:48:22.968Z,91.58
2019-04-26T19:50:54.704Z,92.20
2019-04-26T19:53:42.213Z,92.45
2019-04-26T19:56:12.731Z,92.72
2019-04-26T19:58:39.649Z,92.96
2019-04-26T20:01:06.522Z,93.45
2019-04-26T20:03:33.925Z,93.76
2019-04-26T20:06:01.115Z,93.67
2019-04-26T20:08:29.414Z,93.11
2019-04-26T20:10:56.280Z,93.33
2019-04-26T20:13:23.573Z,93.22
2019-04-26T20:15:51.569Z,93.09
2019-04-26T20:18:21.376Z,93.25
2019-04-26T20:20:48.058Z,93.36
2019-04-26T20:23:14.948Z,93.45
2019-04-26T20:25:41.771Z,92.96
2019-04-26T20:28:14.020Z,93.74
2019-04-26T20:30:52.450Z,94.42
2019-04-26T20:33:19.155Z,94.26
2019-04-26T20:35:46.004Z,94.32
2019-04-26T20:38:14.611Z,94.06
2019-04-26T20:40:43.543Z,93.80
2019-04-26T20:43:22.934Z,94.43
2019-04-26T20:45:41.853Z,94.67
2019-04-26T20:48:08.127Z,94.69
2019-04-26T20:50:36.751Z,94.59
2019-04-26T20:53:03.810Z,95.01
2019-04-26T20:55:34.312Z,95.11
2019-04-26T20:57:59.946Z,95.29
2019-04-26T21:00:27.114Z,95.73
2019-04-26T21:03:01.595Z,95.60
2019-04-26T21:05:22.795Z,95.44
2019-04-26T21:07:51.092Z,95.45
2019-04-26T21:10:22.058Z,95.70
2019-04-26T21:12:52.301Z,95.77
2019-04-26T21:15:20.210Z,96.00
2019-04-26T21:17:56.626Z,96.16
2019-04-26T21:20:27.680Z,95.98
2019-04-26T21:22:53.268Z,96.07
2019-04-26T21:25:41.973Z,96.12
2019-04-26T21:28:22.096Z,94.91
2019-04-26T21:31:03.473Z,93.95
2019-04-26T21:33:38.997Z,93.77
2019-04-26T21:36:13.961Z,92.64
2019-04-26T21:38:51.007Z,93.42
2019-04-26T21:41:20.403Z,92.85
2019-04-26T21:43:57.187Z,93.33
2019-04-26T21:46:23.757Z,93.72
2019-04-26T21:48:50.336Z,93.52
2019-04-26T21:51:17.104Z,93.86
2019-04-26T21:53:52.950Z,94.05
2019-04-26T21:56:20.830Z,93.46
2019-04-26T21:58:47.367Z,93.49
2019-04-26T22:01:19.313Z,93.88
2019-04-26T22:03:53.698Z,93.72
2019-04-26T22:06:14.511Z,93.65
2019-04-26T22:08:49.525Z,93.69
2019-04-26T22:11:20.048Z,93.85
2019-04-26T22:13:53.888Z,93.60
2019-04-26T22:16:34.155Z,93.61
2019-04-26T22:19:27.906Z,93.77
2019-04-26T22:22:04.237Z,93.90
2019-04-26T22:24:33.791Z,93.97
2019-04-26T22:27:00.757Z,94.03
2019-04-26T22:29:27.354Z,94.12
2019-04-26T22:31:54.850Z,93.44
2019-04-26T22:34:21.410Z,93.90
2019-04-26T22:36:49.467Z,94.32
2019-04-26T22:39:16.966Z,94.26
2019-04-26T22:41:43.767Z,94.31
2019-04-26T22:44:16.754Z,94.27
2019-04-26T22:47:03.564Z,94.59
2019-04-26T22:49:29.904Z,94.86
2019-04-26T22:51:56.478Z,94.63
2019-04-26T22:54:24.915Z,94.86
2019-04-26T22:56:53.939Z,94.42
2019-04-26T22:59:20.523Z,94.59
2019-04-26T23:01:48.737Z,94.15
2019-04-26T23:04:22.696Z,94.38
2019-04-26T23:06:46.977Z,94.13
2019-04-26T23:09:16.796Z,93.84
2019-04-26T23:11:43.900Z,94.67
2019-04-26T23:14:19.242Z,94.53
2019-04-26T23:17:11.551Z,94.69
2019-04-26T23:19:44.676Z,94.11
2019-04-26T23:22:12.854Z,94.23
2019-04-26T23:24:39.484Z,94.16
2019-04-26T23:27:16.530Z,94.28
2019-04-26T23:29:45.910Z,94.41
2019-04-26T23:32:18.576Z,94.65
2019-04-26T23:34:41.268Z,94.69
2019-04-26T23:37:08.038Z,94.93
2019-04-26T23:39:34.620Z,94.62
2019-04-26T23:42:01.130Z,94.30
2019-04-26T23:44:27.768Z,93.67
2019-04-26T23:47:00.848Z,93.77
2019-04-26T23:49:25.301Z,94.07
2019-04-26T23:51:53.340Z,94.43
2019-04-26T23:54:20.082Z,94.38
2019-04-26T23:56:47.185Z,93.72
2019-04-26T23:59:24.780Z,92.58
